sensor_id;sensor_type;location;lat;lon;timestamp;P1;durP1;ratioP1;P2;durP2;ratioP2
21647;SDS011;10985;54.182;7.890;2023-03-03T00:01:09;7.75;;;2.47;;
21647;SDS011;10985;54.182;7.890;2023-03-03T00:03:35;5.07;;;3.03;;
21647;SDS011;10985;54.182;7.890;2023-03-03T00:06:01;4.03;;;2.92;;
21647;SDS011;10985;54.182;7.890;2023-03-03T00:08:28;9.10;;;2.78;;
21647;SDS011;10985;54.182;7.890;2023-03-03T00:10:54;6.13;;;2.90;;
21647;SDS011;10985;54.182;7.890;2023-03-03T00:13:23;6.82;;;2.67;;
21647;SDS011;10985;54.182;7.890;2023-03-03T00:15:50;8.65;;;2.65;;
21647;SDS011;10985;54.182;7.890;2023-03-03T00:21:01;8.00;;;2.90;;
21647;SDS011;10985;54.182;7.890;2023-03-03T00:23:39;4.35;;;2.58;;
21647;SDS011;10985;54.182;7.890;2023-03-03T00:26:14;6.70;;;2.80;;
21647;SDS011;10985;54.182;7.890;2023-03-03T00:28:47;11.02;;;2.80;;
21647;SDS011;10985;54.182;7.890;2023-03-03T00:31:18;6.53;;;2.60;;
21647;SDS011;10985;54.182;7.890;2023-03-03T00:33:47;4.75;;;2.40;;
21647;SDS011;10985;54.182;7.890;2023-03-03T00:36:24;8.57;;;2.70;;
21647;SDS011;10985;54.182;7.890;2023-03-03T00:38:56;6.00;;;2.80;;
21647;SDS011;10985;54.182;7.890;2023-03-03T00:41:36;9.68;;;2.72;;
21647;SDS011;10985;54.182;7.890;2023-03-03T00:44:16;4.38;;;2.40;;
21647;SDS011;10985;54.182;7.890;2023-03-03T00:46:55;8.18;;;2.83;;
21647;SDS011;10985;54.182;7.890;2023-03-03T00:49:23;15.05;;;3.00;;
21647;SDS011;10985;54.182;7.890;2023-03-03T00:51:51;6.50;;;2.97;;
21647;SDS011;10985;54.182;7.890;2023-03-03T00:54:17;8.35;;;2.75;;
21647;SDS011;10985;54.182;7.890;2023-03-03T00:56:43;3.53;;;2.35;;
21647;SDS011;10985;54.182;7.890;2023-03-03T00:59:08;6.75;;;2.60;;
21647;SDS011;10985;54.182;7.890;2023-03-03T01:01:34;4.93;;;2.53;;
21647;SDS011;10985;54.182;7.890;2023-03-03T01:03:59;8.77;;;2.65;;
21647;SDS011;10985;54.182;7.890;2023-03-03T01:06:25;10.27;;;2.67;;
21647;SDS011;10985;54.182;7.890;2023-03-03T01:08:50;9.73;;;3.53;;
21647;SDS011;10985;54.182;7.890;2023-03-03T01:11:18;7.65;;;2.75;;
21647;SDS011;10985;54.182;7.890;2023-03-03T01:13:50;7.13;;;2.60;;
21647;SDS011;10985;54.182;7.890;2023-03-03T01:16:17;5.80;;;2.78;;
21647;SDS011;10985;54.182;7.890;2023-03-03T01:18:43;11.73;;;2.80;;
21647;SDS011;10985;54.182;7.890;2023-03-03T01:21:09;6.15;;;2.65;;
21647;SDS011;10985;54.182;7.890;2023-03-03T01:23:35;13.15;;;2.85;;
21647;SDS011;10985;54.182;7.890;2023-03-03T01:26:01;10.80;;;3.30;;
21647;SDS011;10985;54.182;7.890;2023-03-03T01:28:27;10.77;;;2.80;;
21647;SDS011;10985;54.182;7.890;2023-03-03T01:30:53;7.90;;;2.55;;
21647;SDS011;10985;54.182;7.890;2023-03-03T01:33:19;6.68;;;2.70;;
21647;SDS011;10985;54.182;7.890;2023-03-03T01:35:45;10.10;;;2.95;;
21647;SDS011;10985;54.182;7.890;2023-03-03T01:38:11;13.15;;;2.50;;
21647;SDS011;10985;54.182;7.890;2023-03-03T01:40:37;9.00;;;2.58;;
21647;SDS011;10985;54.182;7.890;2023-03-03T01:43:03;5.53;;;2.38;;
21647;SDS011;10985;54.182;7.890;2023-03-03T01:45:29;9.75;;;2.70;;
21647;SDS011;10985;54.182;7.890;2023-03-03T01:48:03;6.88;;;2.53;;
21647;SDS011;10985;54.182;7.890;2023-03-03T01:53:16;12.50;;;3.17;;
21647;SDS011;10985;54.182;7.890;2023-03-03T01:55:52;10.55;;;3.70;;
21647;SDS011;10985;54.182;7.890;2023-03-03T02:00:44;6.88;;;2.38;;
21647;SDS011;10985;54.182;7.890;2023-03-03T02:03:14;6.60;;;2.47;;
21647;SDS011;10985;54.182;7.890;2023-03-03T02:05:40;5.15;;;3.03;;
21647;SDS011;10985;54.182;7.890;2023-03-03T02:08:07;7.90;;;3.38;;
21647;SDS011;10985;54.182;7.890;2023-03-03T02:10:34;5.55;;;2.78;;
21647;SDS011;10985;54.182;7.890;2023-03-03T02:13:00;6.22;;;2.53;;
21647;SDS011;10985;54.182;7.890;2023-03-03T02:15:32;7.20;;;2.90;;
21647;SDS011;10985;54.182;7.890;2023-03-03T02:18:03;5.32;;;2.50;;
21647;SDS011;10985;54.182;7.890;2023-03-03T02:23:20;2.88;;;2.50;;
21647;SDS011;10985;54.182;7.890;2023-03-03T02:26:06;9.02;;;2.85;;
21647;SDS011;10985;54.182;7.890;2023-03-03T02:28:34;9.50;;;2.90;;
21647;SDS011;10985;54.182;7.890;2023-03-03T02:31:01;6.18;;;2.60;;
21647;SDS011;10985;54.182;7.890;2023-03-03T02:33:29;5.80;;;2.83;;
21647;SDS011;10985;54.182;7.890;2023-03-03T02:35:55;4.43;;;2.95;;
21647;SDS011;10985;54.182;7.890;2023-03-03T02:38:28;6.22;;;3.25;;
21647;SDS011;10985;54.182;7.890;2023-03-03T02:41:02;6.53;;;2.50;;
21647;SDS011;10985;54.182;7.890;2023-03-03T02:43:37;8.00;;;2.97;;
21647;SDS011;10985;54.182;7.890;2023-03-03T02:46:09;5.30;;;2.83;;
21647;SDS011;10985;54.182;7.890;2023-03-03T02:48:35;5.53;;;2.60;;
21647;SDS011;10985;54.182;7.890;2023-03-03T02:51:00;11.88;;;2.70;;
21647;SDS011;10985;54.182;7.890;2023-03-03T02:53:26;7.68;;;3.47;;
21647;SDS011;10985;54.182;7.890;2023-03-03T02:55:51;7.28;;;2.67;;
21647;SDS011;10985;54.182;7.890;2023-03-03T02:58:17;11.95;;;2.97;;
21647;SDS011;10985;54.182;7.890;2023-03-03T03:00:42;4.20;;;2.80;;
21647;SDS011;10985;54.182;7.890;2023-03-03T03:03:11;7.80;;;2.80;;
21647;SDS011;10985;54.182;7.890;2023-03-03T03:05:37;9.00;;;3.00;;
21647;SDS011;10985;54.182;7.890;2023-03-03T03:08:02;7.53;;;3.30;;
21647;SDS011;10985;54.182;7.890;2023-03-03T03:10:28;7.55;;;2.90;;
21647;SDS011;10985;54.182;7.890;2023-03-03T03:12:53;6.57;;;2.70;;
21647;SDS011;10985;54.182;7.890;2023-03-03T03:15:19;7.07;;;2.72;;
21647;SDS011;10985;54.182;7.890;2023-03-03T03:17:44;10.82;;;2.60;;
21647;SDS011;10985;54.182;7.890;2023-03-03T03:20:10;4.50;;;2.90;;
21647;SDS011;10985;54.182;7.890;2023-03-03T03:22:36;6.07;;;2.70;;
21647;SDS011;10985;54.182;7.890;2023-03-03T03:25:01;4.93;;;3.05;;
21647;SDS011;10985;54.182;7.890;2023-03-03T03:27:27;9.35;;;2.60;;
21647;SDS011;10985;54.182;7.890;2023-03-03T03:29:52;7.75;;;2.75;;
21647;SDS011;10985;54.182;7.890;2023-03-03T03:32:18;9.30;;;2.80;;
21647;SDS011;10985;54.182;7.890;2023-03-03T03:34:43;4.25;;;2.90;;
21647;SDS011;10985;54.182;7.890;2023-03-03T03:37:09;5.45;;;2.50;;
21647;SDS011;10985;54.182;7.890;2023-03-03T03:39:34;4.57;;;2.63;;
21647;SDS011;10985;54.182;7.890;2023-03-03T03:42:00;10.05;;;3.00;;
21647;SDS011;10985;54.182;7.890;2023-03-03T03:44:26;8.13;;;2.92;;
21647;SDS011;10985;54.182;7.890;2023-03-03T03:46:51;6.35;;;2.78;;
21647;SDS011;10985;54.182;7.890;2023-03-03T03:49:17;4.93;;;2.88;;
21647;SDS011;10985;54.182;7.890;2023-03-03T03:51:42;4.78;;;2.83;;
21647;SDS011;10985;54.182;7.890;2023-03-03T03:54:08;4.90;;;3.03;;
21647;SDS011;10985;54.182;7.890;2023-03-03T03:56:33;6.00;;;2.90;;
21647;SDS011;10985;54.182;7.890;2023-03-03T03:58:59;8.77;;;3.13;;
21647;SDS011;10985;54.182;7.890;2023-03-03T04:01:25;9.77;;;2.90;;
21647;SDS011;10985;54.182;7.890;2023-03-03T04:03:50;5.97;;;3.03;;
21647;SDS011;10985;54.182;7.890;2023-03-03T04:06:16;7.80;;;2.85;;
21647;SDS011;10985;54.182;7.890;2023-03-03T04:08:41;5.85;;;2.97;;
21647;SDS011;10985;54.182;7.890;2023-03-03T04:11:07;6.18;;;2.70;;
21647;SDS011;10985;54.182;7.890;2023-03-03T04:13:32;6.10;;;2.63;;
21647;SDS011;10985;54.182;7.890;2023-03-03T04:15:59;6.72;;;3.00;;
21647;SDS011;10985;54.182;7.890;2023-03-03T04:18:25;12.23;;;3.10;;
21647;SDS011;10985;54.182;7.890;2023-03-03T04:20:51;5.45;;;3.03;;
21647;SDS011;10985;54.182;7.890;2023-03-03T04:23:18;8.95;;;3.30;;
21647;SDS011;10985;54.182;7.890;2023-03-03T04:25:47;6.22;;;3.28;;
21647;SDS011;10985;54.182;7.890;2023-03-03T04:28:14;7.65;;;2.97;;
21647;SDS011;10985;54.182;7.890;2023-03-03T04:30:40;4.70;;;3.20;;
21647;SDS011;10985;54.182;7.890;2023-03-03T04:33:06;7.00;;;3.08;;
21647;SDS011;10985;54.182;7.890;2023-03-03T04:35:31;9.73;;;2.90;;
21647;SDS011;10985;54.182;7.890;2023-03-03T04:37:56;5.90;;;2.95;;
21647;SDS011;10985;54.182;7.890;2023-03-03T04:40:22;8.05;;;2.80;;
21647;SDS011;10985;54.182;7.890;2023-03-03T04:42:48;6.43;;;3.22;;
21647;SDS011;10985;54.182;7.890;2023-03-03T04:45:13;12.25;;;3.30;;
21647;SDS011;10985;54.182;7.890;2023-03-03T04:47:40;3.72;;;2.70;;
21647;SDS011;10985;54.182;7.890;2023-03-03T04:50:06;6.57;;;3.50;;
21647;SDS011;10985;54.182;7.890;2023-03-03T04:52:32;11.00;;;3.50;;
21647;SDS011;10985;54.182;7.890;2023-03-03T04:54:58;8.98;;;3.00;;
21647;SDS011;10985;54.182;7.890;2023-03-03T04:57:23;6.38;;;3.13;;
21647;SDS011;10985;54.182;7.890;2023-03-03T04:59:49;7.13;;;3.15;;
21647;SDS011;10985;54.182;7.890;2023-03-03T05:02:15;8.75;;;3.75;;
21647;SDS011;10985;54.182;7.890;2023-03-03T05:04:41;4.50;;;3.38;;
21647;SDS011;10985;54.182;7.890;2023-03-03T05:07:07;6.25;;;3.42;;
21647;SDS011;10985;54.182;7.890;2023-03-03T05:09:32;5.40;;;3.33;;
21647;SDS011;10985;54.182;7.890;2023-03-03T05:11:58;7.13;;;2.60;;
21647;SDS011;10985;54.182;7.890;2023-03-03T05:14:24;8.00;;;2.90;;
21647;SDS011;10985;54.182;7.890;2023-03-03T05:16:50;6.47;;;3.03;;
21647;SDS011;10985;54.182;7.890;2023-03-03T05:19:15;11.43;;;3.30;;
21647;SDS011;10985;54.182;7.890;2023-03-03T05:21:41;8.65;;;3.45;;
21647;SDS011;10985;54.182;7.890;2023-03-03T05:24:07;8.45;;;3.67;;
21647;SDS011;10985;54.182;7.890;2023-03-03T05:26:36;7.20;;;3.35;;
21647;SDS011;10985;54.182;7.890;2023-03-03T05:29:02;5.38;;;2.80;;
21647;SDS011;10985;54.182;7.890;2023-03-03T05:31:27;5.15;;;3.25;;
21647;SDS011;10985;54.182;7.890;2023-03-03T05:33:53;12.23;;;2.90;;
21647;SDS011;10985;54.182;7.890;2023-03-03T05:36:19;11.40;;;3.40;;
21647;SDS011;10985;54.182;7.890;2023-03-03T05:38:44;8.15;;;3.20;;
21647;SDS011;10985;54.182;7.890;2023-03-03T05:41:10;8.73;;;2.90;;
21647;SDS011;10985;54.182;7.890;2023-03-03T05:43:35;5.93;;;2.83;;
21647;SDS011;10985;54.182;7.890;2023-03-03T05:46:01;9.27;;;3.17;;
21647;SDS011;10985;54.182;7.890;2023-03-03T05:48:27;5.78;;;3.10;;
21647;SDS011;10985;54.182;7.890;2023-03-03T05:50:52;7.65;;;2.85;;
21647;SDS011;10985;54.182;7.890;2023-03-03T05:53:18;15.30;;;3.80;;
21647;SDS011;10985;54.182;7.890;2023-03-03T05:55:43;7.28;;;2.83;;
21647;SDS011;10985;54.182;7.890;2023-03-03T05:58:09;9.40;;;3.03;;
21647;SDS011;10985;54.182;7.890;2023-03-03T06:00:35;3.20;;;2.85;;
21647;SDS011;10985;54.182;7.890;2023-03-03T06:03:01;10.90;;;3.00;;
21647;SDS011;10985;54.182;7.890;2023-03-03T06:05:27;5.50;;;2.97;;
21647;SDS011;10985;54.182;7.890;2023-03-03T06:07:52;11.27;;;2.92;;
21647;SDS011;10985;54.182;7.890;2023-03-03T06:10:18;7.88;;;3.10;;
21647;SDS011;10985;54.182;7.890;2023-03-03T06:12:43;5.85;;;2.78;;
21647;SDS011;10985;54.182;7.890;2023-03-03T06:15:09;10.75;;;3.00;;
21647;SDS011;10985;54.182;7.890;2023-03-03T06:17:35;9.38;;;3.10;;
21647;SDS011;10985;54.182;7.890;2023-03-03T06:20:01;5.75;;;2.92;;
21647;SDS011;10985;54.182;7.890;2023-03-03T06:22:27;7.13;;;3.13;;
21647;SDS011;10985;54.182;7.890;2023-03-03T06:24:52;4.10;;;2.67;;
21647;SDS011;10985;54.182;7.890;2023-03-03T06:27:18;3.03;;;2.83;;
21647;SDS011;10985;54.182;7.890;2023-03-03T06:29:43;4.28;;;2.65;;
21647;SDS011;10985;54.182;7.890;2023-03-03T06:32:09;5.60;;;2.80;;
21647;SDS011;10985;54.182;7.890;2023-03-03T06:34:35;4.15;;;2.75;;
21647;SDS011;10985;54.182;7.890;2023-03-03T06:37:00;5.53;;;2.78;;
21647;SDS011;10985;54.182;7.890;2023-03-03T06:39:26;7.18;;;2.58;;
21647;SDS011;10985;54.182;7.890;2023-03-03T06:41:52;10.02;;;3.00;;
21647;SDS011;10985;54.182;7.890;2023-03-03T06:44:17;7.40;;;3.03;;
21647;SDS011;10985;54.182;7.890;2023-03-03T06:46:43;5.03;;;2.58;;
21647;SDS011;10985;54.182;7.890;2023-03-03T06:49:08;5.38;;;2.85;;
21647;SDS011;10985;54.182;7.890;2023-03-03T06:51:34;7.03;;;2.95;;
21647;SDS011;10985;54.182;7.890;2023-03-03T06:54:13;8.68;;;2.85;;
21647;SDS011;10985;54.182;7.890;2023-03-03T06:56:40;7.32;;;2.65;;
21647;SDS011;10985;54.182;7.890;2023-03-03T06:59:14;3.95;;;2.50;;
21647;SDS011;10985;54.182;7.890;2023-03-03T07:01:41;6.25;;;2.63;;
21647;SDS011;10985;54.182;7.890;2023-03-03T07:04:21;7.88;;;2.70;;
21647;SDS011;10985;54.182;7.890;2023-03-03T07:06:59;12.38;;;3.25;;
21647;SDS011;10985;54.182;7.890;2023-03-03T07:09:34;8.30;;;2.83;;
21647;SDS011;10985;54.182;7.890;2023-03-03T07:12:01;8.23;;;2.95;;
21647;SDS011;10985;54.182;7.890;2023-03-03T07:14:35;4.97;;;2.60;;
21647;SDS011;10985;54.182;7.890;2023-03-03T07:17:09;6.07;;;3.15;;
21647;SDS011;10985;54.182;7.890;2023-03-03T07:19:43;3.97;;;2.40;;
21647;SDS011;10985;54.182;7.890;2023-03-03T07:24:37;5.32;;;2.38;;
21647;SDS011;10985;54.182;7.890;2023-03-03T07:27:10;5.35;;;2.90;;
21647;SDS011;10985;54.182;7.890;2023-03-03T07:29:37;6.32;;;2.65;;
21647;SDS011;10985;54.182;7.890;2023-03-03T07:32:12;8.10;;;2.63;;
21647;SDS011;10985;54.182;7.890;2023-03-03T07:34:50;7.07;;;2.75;;
21647;SDS011;10985;54.182;7.890;2023-03-03T07:37:26;9.23;;;2.70;;
21647;SDS011;10985;54.182;7.890;2023-03-03T07:39:56;8.07;;;2.90;;
21647;SDS011;10985;54.182;7.890;2023-03-03T07:45:00;9.20;;;2.65;;
21647;SDS011;10985;54.182;7.890;2023-03-03T07:47:30;6.75;;;2.70;;
21647;SDS011;10985;54.182;7.890;2023-03-03T07:50:07;7.05;;;2.90;;
21647;SDS011;10985;54.182;7.890;2023-03-03T07:52:41;13.23;;;3.25;;
21647;SDS011;10985;54.182;7.890;2023-03-03T08:03:06;7.15;;;2.78;;
21647;SDS011;10985;54.182;7.890;2023-03-03T08:05:42;10.98;;;3.00;;
21647;SDS011;10985;54.182;7.890;2023-03-03T08:08:27;9.27;;;2.70;;
21647;SDS011;10985;54.182;7.890;2023-03-03T08:10:55;8.45;;;3.05;;
21647;SDS011;10985;54.182;7.890;2023-03-03T08:13:35;9.05;;;3.20;;
21647;SDS011;10985;54.182;7.890;2023-03-03T08:21:02;12.50;;;2.92;;
21647;SDS011;10985;54.182;7.890;2023-03-03T08:23:34;11.43;;;3.38;;
21647;SDS011;10985;54.182;7.890;2023-03-03T08:26:00;8.48;;;4.22;;
21647;SDS011;10985;54.182;7.890;2023-03-03T08:28:25;12.38;;;5.35;;
21647;SDS011;10985;54.182;7.890;2023-03-03T08:30:51;13.35;;;5.93;;
21647;SDS011;10985;54.182;7.890;2023-03-03T08:33:17;17.13;;;4.75;;
21647;SDS011;10985;54.182;7.890;2023-03-03T08:35:42;10.07;;;4.15;;
21647;SDS011;10985;54.182;7.890;2023-03-03T08:38:09;10.55;;;3.42;;
21647;SDS011;10985;54.182;7.890;2023-03-03T08:40:36;14.43;;;3.80;;
21647;SDS011;10985;54.182;7.890;2023-03-03T08:43:02;16.30;;;3.50;;
21647;SDS011;10985;54.182;7.890;2023-03-03T08:45:27;15.75;;;4.03;;
21647;SDS011;10985;54.182;7.890;2023-03-03T08:47:54;13.80;;;2.97;;
21647;SDS011;10985;54.182;7.890;2023-03-03T08:50:20;10.85;;;2.90;;
21647;SDS011;10985;54.182;7.890;2023-03-03T08:52:45;10.32;;;3.40;;
21647;SDS011;10985;54.182;7.890;2023-03-03T08:55:11;19.30;;;3.45;;
21647;SDS011;10985;54.182;7.890;2023-03-03T08:57:37;13.38;;;3.40;;
21647;SDS011;10985;54.182;7.890;2023-03-03T09:00:03;12.18;;;3.25;;
21647;SDS011;10985;54.182;7.890;2023-03-03T09:02:34;10.48;;;3.00;;
21647;SDS011;10985;54.182;7.890;2023-03-03T09:04:59;12.00;;;2.53;;
21647;SDS011;10985;54.182;7.890;2023-03-03T09:07:25;14.77;;;3.13;;
21647;SDS011;10985;54.182;7.890;2023-03-03T09:09:51;8.68;;;3.20;;
21647;SDS011;10985;54.182;7.890;2023-03-03T09:12:18;21.58;;;4.35;;
21647;SDS011;10985;54.182;7.890;2023-03-03T09:14:46;10.75;;;3.17;;
21647;SDS011;10985;54.182;7.890;2023-03-03T09:17:26;7.78;;;2.92;;
21647;SDS011;10985;54.182;7.890;2023-03-03T09:20:03;15.93;;;3.83;;
21647;SDS011;10985;54.182;7.890;2023-03-03T09:22:46;9.55;;;2.80;;
21647;SDS011;10985;54.182;7.890;2023-03-03T09:25:17;9.93;;;3.30;;
21647;SDS011;10985;54.182;7.890;2023-03-03T09:27:59;14.95;;;4.32;;
21647;SDS011;10985;54.182;7.890;2023-03-03T09:30:36;18.15;;;3.75;;
21647;SDS011;10985;54.182;7.890;2023-03-03T09:33:23;14.55;;;2.70;;
21647;SDS011;10985;54.182;7.890;2023-03-03T09:38:44;8.70;;;3.03;;
21647;SDS011;10985;54.182;7.890;2023-03-03T09:44:09;7.43;;;3.10;;
21647;SDS011;10985;54.182;7.890;2023-03-03T09:55:22;15.77;;;3.95;;
21647;SDS011;10985;54.182;7.890;2023-03-03T10:04:02;11.75;;;2.78;;
21647;SDS011;10985;54.182;7.890;2023-03-03T10:12:12;13.30;;;3.50;;
21647;SDS011;10985;54.182;7.890;2023-03-03T10:15:03;14.20;;;3.58;;
21647;SDS011;10985;54.182;7.890;2023-03-03T10:17:53;25.67;;;4.53;;
21647;SDS011;10985;54.182;7.890;2023-03-03T10:23:06;15.23;;;4.75;;
21647;SDS011;10985;54.182;7.890;2023-03-03T10:26:00;28.73;;;4.68;;
21647;SDS011;10985;54.182;7.890;2023-03-03T10:31:37;19.20;;;4.78;;
21647;SDS011;10985;54.182;7.890;2023-03-03T10:34:21;19.23;;;4.82;;
21647;SDS011;10985;54.182;7.890;2023-03-03T10:37:12;24.23;;;4.63;;
21647;SDS011;10985;54.182;7.890;2023-03-03T10:51:57;27.88;;;5.13;;
21647;SDS011;10985;54.182;7.890;2023-03-03T10:55:05;24.50;;;4.82;;
21647;SDS011;10985;54.182;7.890;2023-03-03T10:57:55;21.23;;;4.80;;
21647;SDS011;10985;54.182;7.890;2023-03-03T11:00:40;33.67;;;7.00;;
21647;SDS011;10985;54.182;7.890;2023-03-03T11:09:00;37.10;;;5.22;;
21647;SDS011;10985;54.182;7.890;2023-03-03T11:11:42;40.47;;;6.75;;
21647;SDS011;10985;54.182;7.890;2023-03-03T11:14:28;22.05;;;4.40;;
21647;SDS011;10985;54.182;7.890;2023-03-03T11:22:30;27.25;;;5.47;;
21647;SDS011;10985;54.182;7.890;2023-03-03T11:28:22;28.38;;;5.15;;
21647;SDS011;10985;54.182;7.890;2023-03-03T11:34:17;19.90;;;4.93;;
21647;SDS011;10985;54.182;7.890;2023-03-03T11:37:07;37.22;;;5.57;;
21647;SDS011;10985;54.182;7.890;2023-03-03T11:39:39;24.70;;;5.05;;
21647;SDS011;10985;54.182;7.890;2023-03-03T11:42:20;26.30;;;5.40;;
21647;SDS011;10985;54.182;7.890;2023-03-03T11:44:49;27.95;;;5.05;;
21647;SDS011;10985;54.182;7.890;2023-03-03T11:53:04;28.60;;;5.75;;
21647;SDS011;10985;54.182;7.890;2023-03-03T11:55:40;30.17;;;4.75;;
21647;SDS011;10985;54.182;7.890;2023-03-03T11:58:12;22.85;;;4.70;;
21647;SDS011;10985;54.182;7.890;2023-03-03T12:04:09;31.60;;;5.65;;
21647;SDS011;10985;54.182;7.890;2023-03-03T12:06:45;29.10;;;4.85;;
21647;SDS011;10985;54.182;7.890;2023-03-03T12:09:51;30.10;;;5.20;;
21647;SDS011;10985;54.182;7.890;2023-03-03T12:12:30;27.58;;;4.90;;
21647;SDS011;10985;54.182;7.890;2023-03-03T12:15:03;26.20;;;5.22;;
21647;SDS011;10985;54.182;7.890;2023-03-03T12:20:54;27.15;;;5.55;;
21647;SDS011;10985;54.182;7.890;2023-03-03T12:23:58;27.35;;;5.10;;
21647;SDS011;10985;54.182;7.890;2023-03-03T12:26:47;32.67;;;5.85;;
21647;SDS011;10985;54.182;7.890;2023-03-03T12:29:41;31.92;;;6.10;;
21647;SDS011;10985;54.182;7.890;2023-03-03T12:34:57;27.55;;;5.75;;
21647;SDS011;10985;54.182;7.890;2023-03-03T12:40:18;32.60;;;5.38;;
21647;SDS011;10985;54.182;7.890;2023-03-03T12:45:37;32.47;;;5.45;;
21647;SDS011;10985;54.182;7.890;2023-03-03T12:48:37;34.88;;;6.05;;
21647;SDS011;10985;54.182;7.890;2023-03-03T12:51:24;33.38;;;5.70;;
21647;SDS011;10985;54.182;7.890;2023-03-03T12:56:54;31.98;;;6.13;;
21647;SDS011;10985;54.182;7.890;2023-03-03T12:59:30;29.65;;;6.70;;
21647;SDS011;10985;54.182;7.890;2023-03-03T13:02:33;34.13;;;5.75;;
21647;SDS011;10985;54.182;7.890;2023-03-03T13:07:58;28.27;;;5.03;;
21647;SDS011;10985;54.182;7.890;2023-03-03T13:13:52;22.63;;;5.38;;
21647;SDS011;10985;54.182;7.890;2023-03-03T13:16:52;26.63;;;5.18;;
21647;SDS011;10985;54.182;7.890;2023-03-03T13:19:20;29.63;;;5.50;;
21647;SDS011;10985;54.182;7.890;2023-03-03T13:24:27;35.97;;;5.53;;
21647;SDS011;10985;54.182;7.890;2023-03-03T13:27:06;21.90;;;6.10;;
21647;SDS011;10985;54.182;7.890;2023-03-03T13:29:43;32.03;;;5.97;;
21647;SDS011;10985;54.182;7.890;2023-03-03T13:32:34;32.88;;;5.63;;
21647;SDS011;10985;54.182;7.890;2023-03-03T13:35:24;28.88;;;5.85;;
21647;SDS011;10985;54.182;7.890;2023-03-03T13:38:01;22.85;;;4.80;;
21647;SDS011;10985;54.182;7.890;2023-03-03T13:40:37;30.52;;;6.25;;
21647;SDS011;10985;54.182;7.890;2023-03-03T13:43:26;36.08;;;6.18;;
21647;SDS011;10985;54.182;7.890;2023-03-03T13:48:57;33.50;;;5.45;;
21647;SDS011;10985;54.182;7.890;2023-03-03T13:57:13;25.95;;;5.53;;
21647;SDS011;10985;54.182;7.890;2023-03-03T14:02:20;34.05;;;5.93;;
21647;SDS011;10985;54.182;7.890;2023-03-03T14:05:14;25.08;;;5.53;;
21647;SDS011;10985;54.182;7.890;2023-03-03T14:07:49;37.58;;;5.95;;
21647;SDS011;10985;54.182;7.890;2023-03-03T14:10:46;31.42;;;5.78;;
21647;SDS011;10985;54.182;7.890;2023-03-03T14:13:41;33.63;;;6.57;;
21647;SDS011;10985;54.182;7.890;2023-03-03T14:16:28;31.10;;;6.10;;
21647;SDS011;10985;54.182;7.890;2023-03-03T14:19:18;36.30;;;6.30;;
21647;SDS011;10985;54.182;7.890;2023-03-03T14:24:53;30.25;;;5.90;;
21647;SDS011;10985;54.182;7.890;2023-03-03T14:27:27;42.60;;;7.18;;
21647;SDS011;10985;54.182;7.890;2023-03-03T14:30:45;34.22;;;6.20;;
21647;SDS011;10985;54.182;7.890;2023-03-03T14:35:40;34.33;;;5.80;;
21647;SDS011;10985;54.182;7.890;2023-03-03T14:44:35;32.10;;;6.28;;
21647;SDS011;10985;54.182;7.890;2023-03-03T14:46:59;41.78;;;7.05;;
21647;SDS011;10985;54.182;7.890;2023-03-03T14:49:35;39.97;;;6.90;;
21647;SDS011;10985;54.182;7.890;2023-03-03T14:52:17;37.78;;;6.85;;
21647;SDS011;10985;54.182;7.890;2023-03-03T14:54:49;39.28;;;6.47;;
21647;SDS011;10985;54.182;7.890;2023-03-03T14:57:21;28.85;;;5.90;;
21647;SDS011;10985;54.182;7.890;2023-03-03T15:05:20;40.58;;;6.32;;
21647;SDS011;10985;54.182;7.890;2023-03-03T15:07:50;40.28;;;6.90;;
21647;SDS011;10985;54.182;7.890;2023-03-03T15:10:28;39.65;;;6.65;;
21647;SDS011;10985;54.182;7.890;2023-03-03T15:12:55;38.45;;;6.97;;
21647;SDS011;10985;54.182;7.890;2023-03-03T15:15:23;32.15;;;6.07;;
21647;SDS011;10985;54.182;7.890;2023-03-03T15:20:22;46.22;;;6.82;;
21647;SDS011;10985;54.182;7.890;2023-03-03T15:25:58;39.53;;;6.85;;
21647;SDS011;10985;54.182;7.890;2023-03-03T15:31:29;35.92;;;6.82;;
21647;SDS011;10985;54.182;7.890;2023-03-03T15:39:37;39.75;;;6.43;;
21647;SDS011;10985;54.182;7.890;2023-03-03T15:42:21;41.00;;;7.28;;
21647;SDS011;10985;54.182;7.890;2023-03-03T15:45:20;40.55;;;6.90;;
21647;SDS011;10985;54.182;7.890;2023-03-03T15:59:01;41.45;;;7.35;;
21647;SDS011;10985;54.182;7.890;2023-03-03T16:04:27;53.33;;;8.32;;
21647;SDS011;10985;54.182;7.890;2023-03-03T16:15:56;37.95;;;6.68;;
21647;SDS011;10985;54.182;7.890;2023-03-03T16:21:32;42.17;;;7.65;;
21647;SDS011;10985;54.182;7.890;2023-03-03T16:26:47;44.67;;;8.07;;
21647;SDS011;10985;54.182;7.890;2023-03-03T16:34:53;46.13;;;7.72;;
21647;SDS011;10985;54.182;7.890;2023-03-03T16:37:28;48.08;;;7.38;;
21647;SDS011;10985;54.182;7.890;2023-03-03T16:40:06;48.03;;;8.30;;
21647;SDS011;10985;54.182;7.890;2023-03-03T16:42:36;38.97;;;7.70;;
21647;SDS011;10985;54.182;7.890;2023-03-03T16:45:10;49.53;;;7.60;;
21647;SDS011;10985;54.182;7.890;2023-03-03T16:52:55;49.65;;;7.97;;
21647;SDS011;10985;54.182;7.890;2023-03-03T16:55:52;59.03;;;8.20;;
21647;SDS011;10985;54.182;7.890;2023-03-03T16:58:33;52.85;;;7.43;;
21647;SDS011;10985;54.182;7.890;2023-03-03T17:06:40;50.78;;;7.63;;
21647;SDS011;10985;54.182;7.890;2023-03-03T17:09:35;50.00;;;7.72;;
21647;SDS011;10985;54.182;7.890;2023-03-03T17:20:47;53.65;;;8.18;;
21647;SDS011;10985;54.182;7.890;2023-03-03T17:25:58;53.10;;;7.38;;
21647;SDS011;10985;54.182;7.890;2023-03-03T17:31:20;54.33;;;7.93;;
21647;SDS011;10985;54.182;7.890;2023-03-03T17:34:20;60.63;;;8.45;;
21647;SDS011;10985;54.182;7.890;2023-03-03T17:37:01;47.80;;;7.82;;
21647;SDS011;10985;54.182;7.890;2023-03-03T17:42:17;42.70;;;7.50;;
21647;SDS011;10985;54.182;7.890;2023-03-03T17:44:59;43.03;;;8.05;;
21647;SDS011;10985;54.182;7.890;2023-03-03T17:47:52;41.92;;;7.03;;
21647;SDS011;10985;54.182;7.890;2023-03-03T17:56:20;38.30;;;6.40;;
21647;SDS011;10985;54.182;7.890;2023-03-03T18:13:05;49.03;;;7.50;;
21647;SDS011;10985;54.182;7.890;2023-03-03T18:15:57;43.63;;;7.47;;
21647;SDS011;10985;54.182;7.890;2023-03-03T18:18:50;49.47;;;5.80;;
21647;SDS011;10985;54.182;7.890;2023-03-03T18:21:31;36.63;;;6.22;;
21647;SDS011;10985;54.182;7.890;2023-03-03T18:24:24;38.08;;;5.45;;
21647;SDS011;10985;54.182;7.890;2023-03-03T18:26:54;44.25;;;7.25;;
21647;SDS011;10985;54.182;7.890;2023-03-03T18:29:24;26.40;;;5.05;;
21647;SDS011;10985;54.182;7.890;2023-03-03T18:36:52;33.40;;;6.82;;
21647;SDS011;10985;54.182;7.890;2023-03-03T18:39:36;34.80;;;6.10;;
21647;SDS011;10985;54.182;7.890;2023-03-03T18:44:40;27.90;;;5.47;;
21647;SDS011;10985;54.182;7.890;2023-03-03T18:47:07;27.85;;;5.25;;
21647;SDS011;10985;54.182;7.890;2023-03-03T18:52:21;33.80;;;5.88;;
21647;SDS011;10985;54.182;7.890;2023-03-03T18:55:04;39.65;;;6.15;;
21647;SDS011;10985;54.182;7.890;2023-03-03T18:57:59;32.83;;;5.70;;
21647;SDS011;10985;54.182;7.890;2023-03-03T19:00:41;21.42;;;4.60;;
21647;SDS011;10985;54.182;7.890;2023-03-03T19:03:34;30.58;;;5.40;;
21647;SDS011;10985;54.182;7.890;2023-03-03T19:06:01;17.90;;;4.90;;
21647;SDS011;10985;54.182;7.890;2023-03-03T19:08:29;27.70;;;4.75;;
21647;SDS011;10985;54.182;7.890;2023-03-03T19:16:41;38.85;;;5.35;;
21647;SDS011;10985;54.182;7.890;2023-03-03T19:19:09;24.05;;;4.57;;
21647;SDS011;10985;54.182;7.890;2023-03-03T19:21:37;28.73;;;5.40;;
21647;SDS011;10985;54.182;7.890;2023-03-03T19:24:25;31.40;;;5.03;;
21647;SDS011;10985;54.182;7.890;2023-03-03T19:26:56;36.25;;;5.35;;
21647;SDS011;10985;54.182;7.890;2023-03-03T19:29:37;33.80;;;5.00;;
21647;SDS011;10985;54.182;7.890;2023-03-03T19:32:54;33.90;;;5.07;;
21647;SDS011;10985;54.182;7.890;2023-03-03T19:35:29;32.85;;;5.97;;